createdAt,value
2023-01-31T00:07:21.593Z,0.85
2023-01-31T00:08:21.738Z,0.71
2023-01-31T00:09:21.995Z,0.70
2023-01-31T00:10:22.247Z,0.79
2023-01-31T00:11:22.396Z,0.74
2023-01-31T00:12:22.652Z,1.10
2023-01-31T00:13:22.898Z,0.75
2023-01-31T00:14:23.083Z,0.65
2023-01-31T00:15:23.350Z,0.81
2023-01-31T00:16:23.575Z,0.80
2023-01-31T00:17:23.730Z,0.72
2023-01-31T00:18:23.996Z,1.12
2023-01-31T00:19:24.253Z,0.68
2023-01-31T00:20:24.497Z,0.94
2023-01-31T00:21:24.650Z,0.99
2023-01-31T00:22:24.912Z,0.89
2023-01-31T00:23:25.149Z,0.92
2023-01-31T00:24:25.323Z,0.69
2023-01-31T00:25:25.567Z,0.82
2023-01-31T00:26:25.832Z,0.91
2023-01-31T00:27:25.944Z,1.15
2023-01-31T00:28:26.183Z,1.08
2023-01-31T00:29:26.343Z,1.04
2023-01-31T00:30:26.608Z,0.92
2023-01-31T00:31:27.030Z,0.80
2023-01-31T00:32:27.089Z,0.81
2023-01-31T00:33:27.274Z,1.26
2023-01-31T00:34:27.416Z,1.05
2023-01-31T00:35:27.671Z,0.93
2023-01-31T00:36:27.913Z,1.39
2023-01-31T00:37:28.069Z,1.10
2023-01-31T00:38:28.285Z,0.98
2023-01-31T00:39:28.547Z,0.97
2023-01-31T00:40:28.797Z,1.07
2023-01-31T00:41:28.933Z,0.76
2023-01-31T00:42:29.191Z,0.95
2023-01-31T00:53:31.629Z,0.98
2023-01-31T00:54:31.779Z,1.19
2023-01-31T00:55:31.956Z,1.29
2023-01-31T00:56:32.248Z,1.12
2023-01-31T00:57:32.378Z,0.98
2023-01-31T00:58:32.545Z,1.01
2023-01-31T00:59:32.767Z,1.04
2023-01-31T01:00:32.965Z,1.05
2023-01-31T01:01:33.426Z,0.87
2023-01-31T02:12:36.408Z,1.20
2023-01-31T02:13:36.396Z,1.20
2023-01-31T02:14:36.403Z,1.34
2023-01-31T02:15:36.380Z,1.16
2023-01-31T02:16:36.415Z,0.79
2023-01-31T02:17:36.372Z,1.20
2023-01-31T02:18:36.603Z,1.26
2023-01-31T02:19:36.939Z,1.30
2023-01-31T02:20:36.888Z,1.17
2023-01-31T02:21:37.035Z,1.23
2023-01-31T02:22:37.037Z,1.34
2023-01-31T02:23:37.175Z,1.18
2023-01-31T02:24:37.040Z,0.94
2023-01-31T02:25:36.852Z,0.85
2023-01-31T02:26:37.146Z,1.16
2023-01-31T02:27:37.011Z,0.97
2023-01-31T02:28:36.789Z,0.96
2023-01-31T02:29:36.796Z,0.98
2023-01-31T02:30:36.958Z,1.11
2023-01-31T02:31:36.864Z,0.87
2023-01-31T02:32:36.709Z,1.00
2023-01-31T02:33:36.885Z,0.96
2023-01-31T02:34:36.723Z,1.05
2023-01-31T02:35:37.012Z,1.00
2023-01-31T02:36:36.854Z,1.11
2023-01-31T02:37:36.860Z,1.37
2023-01-31T02:38:36.800Z,1.18
2023-01-31T02:39:36.933Z,1.03
2023-01-31T02:40:36.474Z,0.80
2023-01-31T02:41:36.888Z,1.23
2023-01-31T02:42:36.827Z,1.47
2023-01-31T02:43:36.793Z,2.24
2023-01-31T03:19:36.688Z,1.09
2023-01-31T03:42:36.557Z,0.86
2023-01-31T04:07:41.657Z,0.85
2023-01-31T04:08:41.791Z,0.89
2023-01-31T04:09:42.008Z,0.94
2023-01-31T04:10:42.214Z,1.23
2023-01-31T04:11:42.445Z,1.28
2023-01-31T04:12:42.667Z,1.52
2023-01-31T04:13:42.866Z,0.80
2023-01-31T04:14:43.095Z,0.96
2023-01-31T04:15:43.316Z,1.04
2023-01-31T04:16:43.504Z,1.11
2023-01-31T04:17:43.716Z,1.09
2023-01-31T04:53:51.679Z,0.80
2023-01-31T04:54:51.894Z,1.25
2023-01-31T04:55:52.102Z,0.96
2023-01-31T04:56:52.327Z,1.01
2023-01-31T04:57:52.548Z,1.33
2023-01-31T04:58:52.743Z,1.22
2023-01-31T04:59:52.934Z,1.05
2023-01-31T05:00:53.149Z,0.90
2023-01-31T05:28:59.221Z,6.93
2023-01-31T05:29:59.468Z,4.90
2023-01-31T05:30:59.699Z,2.82
2023-01-31T05:33:00.009Z,1.67
2023-01-31T05:39:02.001Z,2.17
2023-01-31T05:40:02.060Z,2.57
2023-01-31T05:41:01.944Z,2.46
2023-01-31T05:42:02.023Z,2.77
2023-01-31T05:43:02.061Z,3.30
2023-01-31T05:44:01.630Z,3.63
2023-01-31T05:45:01.695Z,3.60
2023-01-31T05:46:01.821Z,3.75
2023-01-31T05:47:01.767Z,3.89
2023-01-31T05:48:02.445Z,2.25
2023-01-31T05:49:02.214Z,3.46
2023-01-31T05:50:01.992Z,6.68
2023-01-31T05:51:02.253Z,2.62
2023-01-31T05:52:02.187Z,2.19
2023-01-31T05:53:02.166Z,3.08
2023-01-31T05:54:02.783Z,2.03
2023-01-31T05:55:02.791Z,1.95
2023-01-31T05:56:02.614Z,1.82
2023-01-31T05:57:02.692Z,2.45
2023-01-31T05:58:02.459Z,7.20
2023-01-31T05:59:02.621Z,2.96
2023-01-31T06:00:02.477Z,2.17
2023-01-31T06:01:02.368Z,2.57
2023-01-31T06:02:02.497Z,3.24
2023-01-31T06:03:03.125Z,3.53
2023-01-31T06:04:02.436Z,2.12
2023-01-31T06:05:02.511Z,3.02
2023-01-31T06:06:02.546Z,2.66
2023-01-31T06:07:02.621Z,2.46
2023-01-31T06:08:02.691Z,1.80
2023-01-31T06:09:02.755Z,1.95
2023-01-31T06:10:02.822Z,1.76
2023-01-31T06:11:02.866Z,2.07
2023-01-31T06:12:02.934Z,2.10
2023-01-31T06:13:03.021Z,2.25
2023-01-31T06:14:03.102Z,2.26
2023-01-31T06:15:03.162Z,2.45
2023-01-31T06:16:03.221Z,2.29
2023-01-31T06:17:03.278Z,2.19
2023-01-31T06:18:03.344Z,2.16
2023-01-31T06:19:03.393Z,2.17
2023-01-31T06:20:03.435Z,2.09
2023-01-31T06:21:03.476Z,1.79
2023-01-31T06:22:03.492Z,1.62
2023-01-31T06:23:03.554Z,1.53
2023-01-31T06:24:03.559Z,1.93
2023-01-31T06:25:03.592Z,2.71
2023-01-31T06:58:04.838Z,1.96
2023-01-31T06:59:04.872Z,3.64
2023-01-31T07:00:04.898Z,2.36
2023-01-31T07:01:04.987Z,2.02
2023-01-31T07:02:05.844Z,2.15
2023-01-31T07:03:05.115Z,2.37
2023-01-31T07:04:05.169Z,2.60
2023-01-31T07:05:05.269Z,1.98
2023-01-31T07:06:05.291Z,1.68
2023-01-31T07:07:05.897Z,2.41
2023-01-31T07:08:05.455Z,2.38
2023-01-31T07:09:05.434Z,2.14
2023-01-31T07:10:05.475Z,2.39
2023-01-31T07:11:06.377Z,2.27
2023-01-31T07:12:05.555Z,2.13
2023-01-31T07:13:05.596Z,2.32
2023-01-31T07:14:07.416Z,2.02
2023-01-31T07:15:05.686Z,2.11
2023-01-31T07:16:05.781Z,1.95
2023-01-31T07:17:05.792Z,2.39
2023-01-31T07:18:05.853Z,2.32
2023-01-31T07:19:05.939Z,1.99
2023-01-31T07:20:05.992Z,1.62
2023-01-31T07:21:06.156Z,1.69
2023-01-31T07:22:06.105Z,1.90
2023-01-31T07:23:06.178Z,2.15
2023-01-31T07:24:06.257Z,2.34
2023-01-31T07:25:06.880Z,2.29
2023-01-31T07:26:06.360Z,2.31
2023-01-31T07:27:06.420Z,2.05
2023-01-31T07:28:06.473Z,1.92
2023-01-31T07:29:06.528Z,1.74
2023-01-31T07:30:06.604Z,2.43
2023-01-31T07:31:06.689Z,2.31
2023-01-31T07:32:06.751Z,2.06
2023-01-31T07:33:06.813Z,2.37
2023-01-31T07:34:06.828Z,2.08
2023-01-31T07:35:06.868Z,2.13
2023-01-31T07:36:06.912Z,2.32
2023-01-31T07:37:06.924Z,2.93
2023-01-31T07:38:06.983Z,2.47
2023-01-31T07:39:07.019Z,2.45
2023-01-31T07:40:07.063Z,2.51
2023-01-31T07:41:07.097Z,2.34
2023-01-31T07:42:07.136Z,2.25
2023-01-31T07:43:07.166Z,2.42
2023-01-31T07:44:07.219Z,1.44
2023-01-31T07:45:22.377Z,2.24
2023-01-31T07:46:08.396Z,2.02
2023-01-31T07:47:07.328Z,2.05
2023-01-31T07:48:07.344Z,2.12
2023-01-31T07:49:07.360Z,1.92
2023-01-31T07:50:07.389Z,1.91
2023-01-31T07:51:07.390Z,2.01
2023-01-31T07:52:08.542Z,1.96
2023-01-31T07:53:07.402Z,2.93
2023-01-31T07:54:07.413Z,2.10
2023-01-31T07:55:07.504Z,3.03
2023-01-31T07:56:07.548Z,1.99
2023-01-31T07:57:07.602Z,1.97
2023-01-31T07:58:07.678Z,1.92
2023-01-31T07:59:07.756Z,1.85
2023-01-31T08:00:07.790Z,2.12
2023-01-31T08:01:07.920Z,2.52
2023-01-31T08:02:07.922Z,2.16
2023-01-31T08:03:07.996Z,2.35
2023-01-31T08:04:20.464Z,2.40
2023-01-31T08:05:09.110Z,2.28
2023-01-31T08:06:08.089Z,2.16
2023-01-31T08:07:08.083Z,2.12
2023-01-31T08:08:08.115Z,2.08
2023-01-31T08:09:08.121Z,2.02
2023-01-31T08:10:08.153Z,1.85
2023-01-31T08:11:08.152Z,2.69
2023-01-31T08:12:08.181Z,3.43
2023-01-31T08:13:08.179Z,3.95
2023-01-31T08:14:08.236Z,2.41
2023-01-31T08:15:08.311Z,3.92
2023-01-31T08:16:08.331Z,3.49
2023-01-31T08:17:08.426Z,3.18
2023-01-31T08:18:08.554Z,2.77
2023-01-31T08:19:08.813Z,2.76
2023-01-31T08:20:09.085Z,2.93
2023-01-31T08:21:10.348Z,3.01
2023-01-31T08:22:09.398Z,3.30
2023-01-31T08:23:09.482Z,2.68
2023-01-31T08:24:09.582Z,3.77
2023-01-31T08:25:09.647Z,2.74
2023-01-31T08:26:09.734Z,2.91
2023-01-31T08:27:09.779Z,3.15
2023-01-31T08:28:09.821Z,3.14
2023-01-31T08:29:09.903Z,3.51
2023-01-31T08:30:09.889Z,3.48
2023-01-31T08:31:09.962Z,3.16
2023-01-31T08:32:10.021Z,3.43
2023-01-31T08:33:10.078Z,3.27
2023-01-31T08:34:10.175Z,3.35
2023-01-31T08:35:10.236Z,2.62
2023-01-31T08:36:10.295Z,3.45
2023-01-31T08:37:10.455Z,3.41
2023-01-31T08:38:16.686Z,3.02
2023-01-31T08:39:11.400Z,2.94
2023-01-31T08:40:10.437Z,3.53
2023-01-31T08:41:10.480Z,2.80
2023-01-31T08:42:10.555Z,2.89
2023-01-31T08:43:10.648Z,3.24
2023-01-31T08:44:10.687Z,2.60
2023-01-31T08:45:10.731Z,2.29
2023-01-31T08:46:10.804Z,2.66
2023-01-31T08:47:10.793Z,3.26
2023-01-31T08:49:10.856Z,2.47
2023-01-31T08:50:25.802Z,2.69
2023-01-31T08:51:11.933Z,2.31
2023-01-31T08:52:10.915Z,2.42
2023-01-31T08:53:10.915Z,2.48
2023-01-31T08:54:11.228Z,2.51
2023-01-31T08:55:11.459Z,3.00
2023-01-31T08:56:11.757Z,2.68
2023-01-31T08:57:12.013Z,2.55
2023-01-31T08:58:12.301Z,2.66
2023-01-31T08:59:13.310Z,2.52
2023-01-31T09:00:12.628Z,2.49
2023-01-31T09:01:12.661Z,2.41
2023-01-31T09:02:12.692Z,2.38
2023-01-31T09:03:12.817Z,2.26
2023-01-31T09:04:12.846Z,2.11
2023-01-31T09:05:13.071Z,2.28
2023-01-31T09:06:13.300Z,2.16
2023-01-31T09:07:13.534Z,2.15
2023-01-31T09:08:13.778Z,2.33
2023-01-31T09:09:13.967Z,1.90
2023-01-31T09:10:14.205Z,1.90
2023-01-31T09:11:14.435Z,2.02
2023-01-31T09:12:14.765Z,1.83
2023-01-31T09:13:15.001Z,2.10
2023-01-31T09:14:15.211Z,2.20
2023-01-31T09:15:15.456Z,1.84
2023-01-31T09:16:15.681Z,1.78
2023-01-31T09:17:15.950Z,2.64
2023-01-31T09:18:16.225Z,1.83
2023-01-31T09:19:16.451Z,2.29
2023-01-31T09:20:16.768Z,1.88
2023-01-31T09:21:17.038Z,1.75
2023-01-31T09:22:17.258Z,2.06
2023-01-31T09:23:17.504Z,2.12
2023-01-31T09:24:17.742Z,2.22
2023-01-31T09:25:18.132Z,2.25
2023-01-31T09:26:18.158Z,2.29
2023-01-31T09:27:18.457Z,2.28
2023-01-31T09:28:18.765Z,2.15
2023-01-31T09:29:18.909Z,2.12
2023-01-31T09:30:19.147Z,2.62
2023-01-31T09:31:19.389Z,2.07
2023-01-31T09:32:19.612Z,2.37
2023-01-31T09:33:19.900Z,2.17
2023-01-31T09:34:20.105Z,2.48
2023-01-31T09:35:20.645Z,2.54
2023-01-31T09:36:20.651Z,2.18
2023-01-31T09:40:21.611Z,2.84
2023-01-31T09:41:21.831Z,3.44
2023-01-31T10:22:31.467Z,3.12
2023-01-31T10:23:32.257Z,2.70
2023-01-31T10:24:32.480Z,2.63
2023-01-31T10:25:32.279Z,2.56
2023-01-31T10:26:32.824Z,3.20
2023-01-31T10:27:32.009Z,3.19
2023-01-31T10:28:31.767Z,2.62
2023-01-31T10:29:31.976Z,2.22
2023-01-31T10:30:32.119Z,2.40
2023-01-31T10:31:32.222Z,2.23
2023-01-31T10:32:31.977Z,3.24
2023-01-31T10:33:32.025Z,2.73
2023-01-31T10:34:31.853Z,2.50
2023-01-31T10:35:31.997Z,3.41
2023-01-31T10:36:31.732Z,2.84
2023-01-31T10:37:32.351Z,2.65
2023-01-31T10:38:32.234Z,2.92
2023-01-31T10:39:32.393Z,2.45
2023-01-31T10:40:31.707Z,2.66
2023-01-31T10:41:31.982Z,2.24
2023-01-31T10:42:31.584Z,2.44
2023-01-31T10:43:31.567Z,2.58
2023-01-31T10:44:31.552Z,2.06
2023-01-31T10:45:32.125Z,2.05
2023-01-31T10:46:31.532Z,2.18
2023-01-31T10:48:31.514Z,2.23
2023-01-31T10:49:31.491Z,1.79
2023-01-31T10:50:31.482Z,2.24
2023-01-31T10:51:31.480Z,2.07
2023-01-31T10:52:31.468Z,2.18
2023-01-31T10:57:31.467Z,2.26
2023-01-31T10:58:31.479Z,2.86
2023-01-31T10:59:31.509Z,1.89
2023-01-31T11:00:31.535Z,1.92
2023-01-31T11:01:31.559Z,2.02
2023-01-31T11:02:31.697Z,1.52
2023-01-31T11:03:31.571Z,1.96
2023-01-31T11:04:31.619Z,1.94
2023-01-31T11:05:31.614Z,1.95
2023-01-31T11:11:31.677Z,1.43
2023-01-31T11:12:31.780Z,1.69
2023-01-31T11:13:31.736Z,1.34
2023-01-31T11:14:31.732Z,1.59
2023-01-31T11:15:31.727Z,1.52
2023-01-31T11:16:31.777Z,1.44
2023-01-31T11:17:31.749Z,1.31
2023-01-31T11:18:31.861Z,1.36
2023-01-31T11:19:31.749Z,1.71
2023-01-31T11:20:31.760Z,1.75
2023-01-31T11:21:31.742Z,1.76
2023-01-31T11:22:31.793Z,1.68
2023-01-31T11:23:32.949Z,1.42
2023-01-31T11:24:31.949Z,1.61
2023-01-31T11:25:31.967Z,1.68
2023-01-31T11:26:31.982Z,1.42
2023-01-31T11:27:32.003Z,1.70
2023-01-31T11:28:32.092Z,1.72
2023-01-31T11:29:32.364Z,1.49
2023-01-31T11:30:32.636Z,1.68
2023-01-31T11:31:32.801Z,2.04
2023-01-31T11:32:32.893Z,2.12
2023-01-31T11:33:33.103Z,1.63
2023-01-31T11:34:33.345Z,1.71
2023-01-31T11:35:33.579Z,1.73
2023-01-31T11:36:33.756Z,1.99
2023-01-31T11:37:34.640Z,1.78
2023-01-31T11:38:33.891Z,1.90
2023-01-31T11:39:33.914Z,1.45
2023-01-31T11:40:33.891Z,1.81
2023-01-31T11:42:33.866Z,1.57
2023-01-31T11:43:33.810Z,1.70
2023-01-31T11:44:33.780Z,1.85
2023-01-31T11:45:34.410Z,1.79
2023-01-31T11:46:33.735Z,1.81
2023-01-31T11:47:33.669Z,1.94
2023-01-31T11:48:33.644Z,1.90
2023-01-31T11:49:33.587Z,1.90
2023-01-31T11:50:33.579Z,1.83
2023-01-31T11:51:34.498Z,1.83
2023-01-31T11:52:33.430Z,1.62
2023-01-31T11:53:33.443Z,1.64
2023-01-31T11:54:33.335Z,2.06
2023-01-31T11:55:33.283Z,1.57
2023-01-31T11:56:33.216Z,1.98
2023-01-31T11:57:33.160Z,1.61
2023-01-31T11:58:33.141Z,2.07
2023-01-31T11:59:33.278Z,1.55
2023-01-31T12:00:33.462Z,1.72
2023-01-31T12:01:33.628Z,1.51
2023-01-31T12:02:33.881Z,1.70
2023-01-31T12:03:34.106Z,1.74
2023-01-31T12:04:34.297Z,1.29
2023-01-31T12:05:34.481Z,1.93
2023-01-31T12:06:34.681Z,2.06
2023-01-31T12:07:34.805Z,1.69
2023-01-31T12:08:35.051Z,1.60
2023-01-31T12:09:35.290Z,1.68
2023-01-31T12:10:35.429Z,1.71
2023-01-31T12:11:35.679Z,2.13
2023-01-31T12:12:35.924Z,1.96
2023-01-31T12:40:41.560Z,2.20
2023-01-31T12:41:41.737Z,1.82
2023-01-31T12:42:41.895Z,1.52
2023-01-31T12:43:42.085Z,2.01
2023-01-31T12:44:42.232Z,1.26
2023-01-31T12:45:42.489Z,1.25
2023-01-31T12:46:42.640Z,1.73
2023-01-31T12:47:42.909Z,1.57
2023-01-31T12:48:43.088Z,1.57
2023-01-31T12:49:43.239Z,1.62
2023-01-31T12:50:43.520Z,1.46
2023-01-31T12:51:43.663Z,1.88
2023-01-31T12:52:43.835Z,2.04
2023-01-31T12:53:44.006Z,1.84
2023-01-31T12:54:44.215Z,1.90
2023-01-31T12:55:44.424Z,1.50
2023-01-31T13:33:51.486Z,2.15
2023-01-31T13:34:51.880Z,1.89
2023-01-31T13:35:51.882Z,2.40
2023-01-31T13:36:52.422Z,2.48
2023-01-31T13:37:52.272Z,2.97
2023-01-31T13:38:52.501Z,2.79
2023-01-31T13:39:52.638Z,2.00
2023-01-31T13:40:52.808Z,1.57
2023-01-31T13:41:53.068Z,1.56
2023-01-31T13:42:53.254Z,1.87
2023-01-31T13:43:53.371Z,1.62
2023-01-31T13:44:53.518Z,1.75
2023-01-31T13:45:53.802Z,1.31
2023-01-31T13:46:54.027Z,1.47
2023-01-31T13:47:54.123Z,1.04
2023-01-31T13:48:54.268Z,1.95
2023-01-31T13:55:54.779Z,1.76
2023-01-31T13:56:54.681Z,2.96
2023-01-31T13:57:54.601Z,2.27
2023-01-31T13:58:54.502Z,2.41
2023-01-31T13:59:54.427Z,2.66
2023-01-31T14:00:54.323Z,1.90
2023-01-31T14:01:54.325Z,2.28
2023-01-31T14:02:54.179Z,1.80
2023-01-31T14:03:54.050Z,2.47
2023-01-31T14:04:53.970Z,2.29
2023-01-31T14:05:54.425Z,1.88
2023-01-31T14:06:53.810Z,2.07
2023-01-31T14:07:53.678Z,1.75
2023-01-31T14:08:53.577Z,1.53
2023-01-31T14:09:54.434Z,1.65
2023-01-31T14:10:53.398Z,1.61
2023-01-31T14:11:53.401Z,2.34
2023-01-31T14:12:53.586Z,1.66
2023-01-31T14:13:53.782Z,2.04
2023-01-31T14:14:53.949Z,2.00
2023-01-31T14:15:54.125Z,1.71
2023-01-31T14:16:54.277Z,2.36
2023-01-31T14:17:54.428Z,1.49
2023-01-31T14:18:54.682Z,2.26
2023-01-31T14:19:54.821Z,2.29
2023-01-31T14:20:54.987Z,1.36
2023-01-31T14:21:55.241Z,2.13
2023-01-31T14:22:55.421Z,1.60
2023-01-31T14:23:55.537Z,1.90
2023-01-31T14:24:55.706Z,2.11
2023-01-31T14:25:55.944Z,1.83
2023-01-31T14:26:56.102Z,1.66
2023-01-31T14:56:01.562Z,2.06
2023-01-31T14:57:01.762Z,1.77
2023-01-31T14:58:01.923Z,1.86
2023-01-31T14:59:02.101Z,1.72
2023-01-31T15:00:02.295Z,2.26
2023-01-31T15:01:02.469Z,1.84
2023-01-31T15:02:02.624Z,1.59
2023-01-31T15:03:02.869Z,1.30
2023-01-31T15:04:03.007Z,1.19
2023-01-31T15:05:03.143Z,1.76
2023-01-31T15:06:03.435Z,1.95
2023-01-31T15:07:03.542Z,1.84
2023-01-31T15:08:03.779Z,1.50
2023-01-31T15:09:03.936Z,2.15
2023-01-31T15:10:04.208Z,1.78
2023-01-31T15:11:04.357Z,2.18
2023-01-31T15:12:06.847Z,2.73
2023-01-31T15:13:04.518Z,2.33
2023-01-31T15:14:04.607Z,2.19
2023-01-31T15:15:04.511Z,1.67
2023-01-31T15:16:04.952Z,1.88
2023-01-31T15:17:04.316Z,1.91
2023-01-31T15:18:04.218Z,1.73
2023-01-31T15:19:04.133Z,2.05
2023-01-31T15:20:04.120Z,2.54
2023-01-31T15:21:03.965Z,2.13
2023-01-31T15:22:03.888Z,2.82
2023-01-31T15:23:03.801Z,2.81
2023-01-31T15:24:03.715Z,3.10
2023-01-31T15:25:03.632Z,3.11
2023-01-31T15:26:03.610Z,2.79
2023-01-31T15:27:03.475Z,2.95
2023-01-31T15:28:03.409Z,2.91
2023-01-31T15:29:03.373Z,2.21
2023-01-31T15:30:03.489Z,2.84
2023-01-31T15:31:03.714Z,3.78
2023-01-31T15:32:03.979Z,3.21
2023-01-31T15:33:04.063Z,3.77
2023-01-31T15:34:04.255Z,3.48
2023-01-31T15:35:04.439Z,3.52
2023-01-31T15:36:04.745Z,3.54
2023-01-31T15:37:04.859Z,6.78
2023-01-31T15:38:05.070Z,4.77
2023-01-31T15:39:05.247Z,4.32
2023-01-31T15:40:05.497Z,5.88
2023-01-31T15:41:05.699Z,6.84
2023-01-31T15:42:05.901Z,8.86
2023-01-31T15:43:06.114Z,13.43
2023-01-31T15:44:06.340Z,21.30
2023-01-31T16:10:11.614Z,2.09
2023-01-31T16:11:11.851Z,2.12
2023-01-31T16:41:17.291Z,3.06
2023-01-31T16:42:17.499Z,3.02
2023-01-31T16:43:17.701Z,3.84
2023-01-31T16:44:17.902Z,2.97
2023-01-31T16:45:18.101Z,2.86
2023-01-31T16:46:18.344Z,2.55
2023-01-31T16:47:18.470Z,2.66
2023-01-31T16:48:18.742Z,1.67
2023-01-31T16:49:18.874Z,2.00
2023-01-31T16:50:22.585Z,2.41
2023-01-31T16:51:19.984Z,2.19
2023-01-31T16:53:18.833Z,4.19
2023-01-31T16:55:19.108Z,2.48
2023-01-31T16:57:18.485Z,3.94
2023-01-31T16:58:18.385Z,4.14
2023-01-31T16:59:18.310Z,1.42
2023-01-31T17:00:18.469Z,1.71
2023-01-31T17:01:18.310Z,2.35
2023-01-31T17:02:18.340Z,4.28
2023-01-31T17:03:18.171Z,3.57
2023-01-31T17:04:18.123Z,2.36
2023-01-31T17:05:18.401Z,1.99
2023-01-31T17:06:18.012Z,2.27
2023-01-31T17:07:17.977Z,1.66
2023-01-31T17:08:17.942Z,1.56
2023-01-31T17:09:17.910Z,1.45
2023-01-31T17:10:17.852Z,0.96
2023-01-31T17:11:28.967Z,1.24
2023-01-31T17:12:18.672Z,0.97
2023-01-31T17:13:17.579Z,1.35
2023-01-31T17:14:17.510Z,4.07
2023-01-31T17:15:17.406Z,2.10
2023-01-31T17:16:17.359Z,1.25
2023-01-31T17:17:22.184Z,1.84
2023-01-31T17:19:17.097Z,1.14
2023-01-31T17:20:16.993Z,1.96
2023-01-31T17:21:16.906Z,2.37
2023-01-31T17:22:16.825Z,2.03
2023-01-31T17:23:16.725Z,2.03
2023-01-31T17:24:16.639Z,1.93
2023-01-31T17:25:16.554Z,2.36
2023-01-31T17:26:16.484Z,1.81
2023-01-31T17:27:16.392Z,2.09
2023-01-31T17:28:16.309Z,1.52
2023-01-31T17:29:16.205Z,1.11
2023-01-31T17:30:16.121Z,1.68
2023-01-31T17:31:16.121Z,1.60
2023-01-31T17:32:15.932Z,1.09
2023-01-31T17:33:15.892Z,1.17
2023-01-31T17:34:15.746Z,1.36
2023-01-31T17:35:15.644Z,1.80
2023-01-31T17:36:16.454Z,1.83
2023-01-31T17:37:18.051Z,2.17
2023-01-31T17:38:16.445Z,1.95
2023-01-31T17:39:15.345Z,3.80
2023-01-31T17:40:15.269Z,2.44
2023-01-31T17:41:15.160Z,1.57
2023-01-31T17:42:15.051Z,1.34
2023-01-31T17:43:14.961Z,1.52
2023-01-31T17:44:14.861Z,2.00
2023-01-31T17:45:15.469Z,3.46
2023-01-31T17:46:14.884Z,2.49
2023-01-31T17:47:14.760Z,1.17
2023-01-31T17:48:25.674Z,1.94
2023-01-31T17:49:15.630Z,0.93
2023-01-31T17:50:14.560Z,1.93
2023-01-31T17:51:14.567Z,1.72
2023-01-31T17:52:14.405Z,1.55
2023-01-31T17:53:14.331Z,1.20
2023-01-31T17:54:14.294Z,1.47
2023-01-31T17:55:14.198Z,0.80
2023-01-31T17:56:14.162Z,4.13
2023-01-31T17:57:14.075Z,3.66
2023-01-31T17:58:13.957Z,2.91
2023-01-31T17:59:25.324Z,4.86
2023-01-31T18:00:14.766Z,7.15
2023-01-31T18:01:13.691Z,1.45
2023-01-31T18:02:13.590Z,3.87
2023-01-31T18:03:13.519Z,3.00
2023-01-31T18:04:13.410Z,6.42
2023-01-31T18:05:13.317Z,7.66
2023-01-31T18:06:13.207Z,14.23
2023-01-31T18:07:13.113Z,6.60
2023-01-31T18:08:13.019Z,2.29
2023-01-31T18:09:12.939Z,1.37
2023-01-31T18:10:12.896Z,1.40
2023-01-31T18:11:12.873Z,1.42
2023-01-31T18:12:12.801Z,1.32
2023-01-31T18:13:12.781Z,2.08
2023-01-31T18:14:12.993Z,1.91
2023-01-31T18:16:13.289Z,1.91
2023-01-31T18:17:13.497Z,1.82
2023-01-31T18:18:13.660Z,1.97
2023-01-31T18:19:13.812Z,1.49
2023-01-31T18:20:14.000Z,2.32
2023-01-31T18:21:14.187Z,1.62
2023-01-31T18:22:14.393Z,1.56
2023-01-31T18:23:14.561Z,1.73
2023-01-31T18:24:14.767Z,1.54
2023-01-31T18:25:14.919Z,2.01
2023-01-31T18:26:15.117Z,2.24
2023-01-31T18:27:15.230Z,1.84
2023-01-31T18:28:15.488Z,1.42
2023-01-31T18:29:15.651Z,1.24
2023-01-31T18:30:15.805Z,1.55
2023-01-31T18:31:16.170Z,1.61
2023-01-31T18:32:18.496Z,1.80
2023-01-31T18:33:16.108Z,1.35
2023-01-31T18:34:16.009Z,1.51
2023-01-31T18:35:15.922Z,1.31
2023-01-31T18:36:15.854Z,1.49
2023-01-31T18:37:15.755Z,1.94
2023-01-31T18:38:15.678Z,1.83
2023-01-31T18:39:15.597Z,1.42
2023-01-31T18:40:15.504Z,1.45
2023-01-31T18:41:15.416Z,1.60
2023-01-31T18:42:15.318Z,2.81
2023-01-31T18:43:15.226Z,2.77
2023-01-31T18:44:15.110Z,1.77
2023-01-31T18:45:15.965Z,2.39
2023-01-31T18:46:15.302Z,1.91
2023-01-31T18:47:15.141Z,2.01
2023-01-31T18:48:15.058Z,1.20
2023-01-31T18:49:14.977Z,1.82
2023-01-31T18:50:14.906Z,2.26
2023-01-31T18:51:14.856Z,2.00
2023-01-31T18:52:14.745Z,0.91
2023-01-31T18:53:14.658Z,1.00
2023-01-31T18:54:14.577Z,0.98
2023-01-31T18:55:14.488Z,0.64
2023-01-31T18:56:14.435Z,1.04
2023-01-31T18:57:14.325Z,0.55
2023-01-31T19:45:18.239Z,0.88
2023-01-31T19:47:14.472Z,0.46
2023-01-31T19:48:14.376Z,0.97
2023-01-31T19:49:14.284Z,1.90
2023-01-31T19:50:14.206Z,0.80
2023-01-31T19:51:14.115Z,1.43
2023-01-31T19:52:14.020Z,1.72
2023-01-31T19:53:13.931Z,1.38
2023-01-31T19:54:13.918Z,1.00
2023-01-31T19:55:13.847Z,1.25
2023-01-31T19:56:13.741Z,0.80
2023-01-31T19:57:13.662Z,1.05
2023-01-31T19:58:13.581Z,0.95
2023-01-31T19:59:13.487Z,2.03
2023-01-31T20:00:13.402Z,1.16
2023-01-31T20:01:13.370Z,1.14
2023-01-31T20:02:13.276Z,0.62
2023-01-31T20:03:13.136Z,0.67
2023-01-31T20:04:13.074Z,1.25
2023-01-31T20:05:13.007Z,0.78
2023-01-31T20:06:12.921Z,0.57
2023-01-31T20:07:12.885Z,0.81
2023-01-31T20:08:12.873Z,1.07
2023-01-31T20:09:12.833Z,0.85
2023-01-31T20:10:12.846Z,0.67
2023-01-31T20:11:12.788Z,0.59
2023-01-31T20:12:12.919Z,0.62
2023-01-31T20:13:13.143Z,0.70
2023-01-31T20:14:13.350Z,0.70
2023-01-31T20:15:13.547Z,0.98
2023-01-31T20:16:13.839Z,0.69
2023-01-31T20:17:13.911Z,0.85
2023-01-31T20:18:14.121Z,2.11
2023-01-31T20:19:14.357Z,10.88
2023-01-31T20:20:14.564Z,9.50
2023-01-31T20:21:14.841Z,11.73
2023-01-31T20:22:15.048Z,2.73
2023-01-31T20:23:15.240Z,25.99
2023-01-31T20:24:15.428Z,23.96
2023-01-31T20:25:15.760Z,20.69
2023-01-31T20:26:15.944Z,5.20
2023-01-31T20:27:16.130Z,10.93
2023-01-31T20:28:16.352Z,11.48
2023-01-31T20:29:16.570Z,12.62
2023-01-31T20:30:16.663Z,7.19
2023-01-31T20:31:17.017Z,6.84
2023-01-31T20:32:17.047Z,3.48
2023-01-31T20:33:17.261Z,1.43
2023-01-31T20:34:17.454Z,1.07
2023-01-31T20:35:17.646Z,1.40
2023-01-31T20:36:17.818Z,1.24
2023-01-31T20:37:17.982Z,2.89
2023-01-31T20:38:18.330Z,2.07
2023-01-31T20:39:18.364Z,1.90
2023-01-31T20:51:21.479Z,0.85
2023-01-31T21:14:21.579Z,0.36
2023-01-31T21:15:21.841Z,0.42
2023-01-31T21:16:21.988Z,0.42
2023-01-31T21:18:22.442Z,0.65
2023-01-31T22:04:31.530Z,4.25
2023-01-31T22:05:31.741Z,4.78
2023-01-31T22:06:31.924Z,3.95
2023-01-31T22:07:32.113Z,3.45
2023-01-31T22:08:32.313Z,3.48
2023-01-31T22:09:32.503Z,3.36
2023-01-31T22:10:32.689Z,3.17
2023-01-31T22:11:33.502Z,3.13
2023-01-31T22:12:32.822Z,3.00
2023-01-31T22:13:32.785Z,2.31
2023-01-31T22:14:32.772Z,3.24
2023-01-31T22:15:32.744Z,3.98
2023-01-31T22:16:32.714Z,4.51
2023-01-31T22:17:32.686Z,3.46
2023-01-31T22:18:32.679Z,2.96
2023-01-31T22:19:32.683Z,3.21
2023-01-31T22:20:32.661Z,3.42
2023-01-31T22:21:32.660Z,3.54
2023-01-31T22:22:32.618Z,3.14
2023-01-31T22:23:32.590Z,3.35
2023-01-31T22:24:32.544Z,3.06
2023-01-31T22:25:32.507Z,3.25
2023-01-31T22:26:32.482Z,3.35
2023-01-31T22:27:32.400Z,3.02
2023-01-31T22:28:32.351Z,2.35
2023-01-31T22:29:32.347Z,2.22
2023-01-31T22:30:32.831Z,3.05
2023-01-31T22:31:32.523Z,4.37
2023-01-31T22:32:32.451Z,3.22
2023-01-31T22:33:32.432Z,3.73
2023-01-31T22:34:32.455Z,3.21
2023-01-31T22:35:32.450Z,3.40
2023-01-31T22:36:32.592Z,3.52
2023-01-31T22:37:32.716Z,3.30
2023-01-31T22:38:32.912Z,3.78
2023-01-31T22:39:33.128Z,2.96
2023-01-31T22:40:33.248Z,4.04
2023-01-31T22:41:33.998Z,4.07
2023-01-31T22:42:33.487Z,4.36
2023-01-31T22:43:33.455Z,4.36
2023-01-31T22:44:33.504Z,4.97
2023-01-31T22:45:33.393Z,4.58
2023-01-31T22:46:33.475Z,3.70
2023-01-31T22:47:33.425Z,3.98
2023-01-31T22:48:33.383Z,3.69
2023-01-31T22:49:33.407Z,3.15
2023-01-31T22:50:33.420Z,3.46
2023-01-31T22:51:33.425Z,3.86
2023-01-31T22:52:33.519Z,3.17
2023-01-31T22:53:33.411Z,3.52
2023-01-31T22:54:33.555Z,2.62
2023-01-31T22:55:33.895Z,2.93
2023-01-31T22:56:33.766Z,3.09
2023-01-31T22:57:33.736Z,3.14
2023-01-31T22:58:33.719Z,2.25
2023-01-31T22:59:33.729Z,2.64
2023-01-31T23:00:33.682Z,2.79
2023-01-31T23:01:33.658Z,2.72
2023-01-31T23:02:33.666Z,3.37
2023-01-31T23:03:34.505Z,3.77
2023-01-31T23:04:33.753Z,4.01
2023-01-31T23:05:33.636Z,3.55
2023-01-31T23:06:33.623Z,3.22
2023-01-31T23:07:33.608Z,3.36
2023-01-31T23:08:33.620Z,3.48
2023-01-31T23:09:33.569Z,3.40
2023-01-31T23:10:33.561Z,3.53
2023-01-31T23:11:33.695Z,3.29
2023-01-31T23:12:33.884Z,3.20
2023-01-31T23:13:34.079Z,3.40
2023-01-31T23:14:34.293Z,3.11
2023-01-31T23:15:34.438Z,3.89
2023-01-31T23:16:34.647Z,3.66
2023-01-31T23:17:34.759Z,3.17
2023-01-31T23:18:35.001Z,3.20
2023-01-31T23:19:35.219Z,3.46
2023-01-31T23:20:35.336Z,3.34
2023-01-31T23:21:35.576Z,3.21
2023-01-31T23:22:35.796Z,3.10
2023-01-31T23:23:36.008Z,3.24
2023-01-31T23:24:36.201Z,4.18
2023-01-31T23:25:36.531Z,3.80
2023-01-31T23:26:36.595Z,4.07
2023-01-31T23:27:37.500Z,4.66